createdAt,value
2023-05-12T00:00:03.135Z,101487.19
2023-05-12T00:02:29.647Z,101542.59
2023-05-12T00:04:56.637Z,101541.88
2023-05-12T00:07:23.342Z,101519.19
2023-05-12T00:09:49.775Z,101534.28
2023-05-12T00:12:16.560Z,101515.53
2023-05-12T00:14:42.970Z,101549.81
2023-05-12T00:17:09.956Z,101497.75
2023-05-12T00:19:36.519Z,101534.00
2023-05-12T00:22:03.092Z,101524.44
2023-05-12T00:24:30.533Z,101537.94
2023-05-12T00:26:57.116Z,101546.97
2023-05-12T00:29:23.658Z,101540.63
2023-05-12T00:31:52.410Z,101542.59
2023-05-12T00:34:18.947Z,101497.88
2023-05-12T00:36:45.331Z,101548.53
2023-05-12T00:39:12.178Z,101544.03
2023-05-12T00:41:38.690Z,101532.03
2023-05-12T00:44:05.490Z,101518.50
2023-05-12T00:46:32.001Z,101556.59
2023-05-12T00:48:58.940Z,101557.13
2023-05-12T00:51:26.227Z,101556.00
2023-05-12T00:53:53.147Z,101551.47
2023-05-12T00:56:20.062Z,101553.59
2023-05-12T00:58:47.057Z,101552.31
2023-05-12T01:01:13.751Z,101558.94
2023-05-12T01:03:40.323Z,101505.78
2023-05-12T01:06:19.740Z,101562.84
2023-05-12T01:08:47.392Z,101553.56
2023-05-12T01:11:13.824Z,101561.31
2023-05-12T01:13:41.255Z,101549.03
2023-05-12T01:16:12.191Z,101567.47
2023-05-12T01:18:41.365Z,101556.03
2023-05-12T01:21:08.357Z,101576.47
2023-05-12T01:23:39.783Z,101570.81
2023-05-12T01:26:10.351Z,101566.16
2023-05-12T01:28:37.719Z,101577.81
2023-05-12T01:31:06.355Z,101573.03
2023-05-12T01:33:33.999Z,101584.31
2023-05-12T01:36:00.698Z,101554.84
2023-05-12T01:38:27.452Z,101552.81
2023-05-12T01:40:53.838Z,101576.22
2023-05-12T01:43:22.160Z,101579.47
2023-05-12T01:45:48.934Z,101581.88
2023-05-12T01:48:15.386Z,101553.78
2023-05-12T01:50:42.362Z,101576.78
2023-05-12T01:53:10.509Z,101559.94
2023-05-12T01:55:37.366Z,101583.66
2023-05-12T01:58:04.103Z,101586.91
2023-05-12T02:00:30.557Z,101591.28
2023-05-12T02:02:57.210Z,101588.72
2023-05-12T02:05:23.871Z,101557.56
2023-05-12T02:07:50.508Z,101594.50
2023-05-12T02:10:17.840Z,101591.41
2023-05-12T02:12:44.444Z,101587.44
2023-05-12T02:15:11.130Z,101586.75
2023-05-12T02:17:37.566Z,101590.28
2023-05-12T02:20:05.386Z,101579.59
2023-05-12T02:22:31.797Z,101605.81
2023-05-12T02:24:58.354Z,101596.91
2023-05-12T02:27:24.760Z,101592.13
2023-05-12T02:29:51.255Z,101612.03
2023-05-12T02:32:17.792Z,101607.31
2023-05-12T02:34:44.249Z,101614.72
2023-05-12T02:37:10.722Z,101602.94
2023-05-12T02:39:37.104Z,101608.78
2023-05-12T02:42:03.659Z,101599.03
2023-05-12T02:44:30.296Z,101605.69
2023-05-12T02:46:57.963Z,101605.81
2023-05-12T02:49:24.379Z,101609.50
2023-05-12T02:51:50.840Z,101608.25
2023-05-12T02:54:17.259Z,101613.03
2023-05-12T02:56:43.706Z,101596.22
2023-05-12T02:59:10.159Z,101601.16
2023-05-12T03:01:36.646Z,101590.88
2023-05-12T03:04:03.294Z,101614.16
2023-05-12T03:06:30.356Z,101594.88
2023-05-12T03:08:56.808Z,101616.84
2023-05-12T03:11:23.274Z,101581.56
2023-05-12T03:13:49.720Z,101608.66
2023-05-12T03:16:19.459Z,101611.91
2023-05-12T03:18:46.396Z,101621.38
2023-05-12T03:21:13.120Z,101601.94
2023-05-12T03:23:39.692Z,101597.00
2023-05-12T03:26:06.269Z,101588.78
2023-05-12T03:28:32.728Z,101625.06
2023-05-12T03:30:59.243Z,101596.28
2023-05-12T03:33:25.830Z,101599.69
2023-05-12T03:35:52.285Z,101614.59
2023-05-12T03:38:18.703Z,101605.06
2023-05-12T03:40:45.244Z,101626.88
2023-05-12T03:43:11.657Z,101621.53
2023-05-12T03:45:38.126Z,101611.50
2023-05-12T03:48:06.947Z,101626.75
2023-05-12T03:50:33.432Z,101625.06
2023-05-12T03:53:00.679Z,101605.75
2023-05-12T03:55:27.084Z,101600.38
2023-05-12T03:57:53.466Z,101634.81
2023-05-12T04:00:20.485Z,101619.81
2023-05-12T04:02:47.420Z,101633.09
2023-05-12T04:05:14.214Z,101643.56
2023-05-12T04:07:40.829Z,101643.09
2023-05-12T04:10:08.304Z,101640.41
2023-05-12T04:12:34.680Z,101581.34
2023-05-12T04:15:01.519Z,101651.72
2023-05-12T04:17:28.062Z,101644.66
2023-05-12T04:19:54.532Z,101621.66
2023-05-12T04:22:22.829Z,101645.34
2023-05-12T04:24:50.716Z,101649.28
2023-05-12T04:27:17.216Z,101644.34
2023-05-12T04:29:43.733Z,101660.13
2023-05-12T04:32:10.413Z,101639.38
2023-05-12T04:34:37.108Z,101609.63
2023-05-12T04:37:03.632Z,101662.38
2023-05-12T04:39:30.296Z,101631.69
2023-05-12T04:42:00.577Z,101652.53
2023-05-12T04:44:26.908Z,101663.28
2023-05-12T04:46:56.211Z,101614.59
2023-05-12T04:49:22.823Z,101651.41
2023-05-12T04:51:49.345Z,101657.19
2023-05-12T04:54:15.871Z,101682.25
2023-05-12T04:56:42.295Z,101681.78
2023-05-12T04:59:08.926Z,101685.16
2023-05-12T05:01:35.421Z,101680.63
2023-05-12T05:04:01.885Z,101695.53
2023-05-12T05:06:28.387Z,101667.19
2023-05-12T05:08:55.841Z,101700.75
2023-05-12T05:11:22.724Z,101688.88
2023-05-12T05:13:49.375Z,101689.38
2023-05-12T05:16:15.892Z,101702.28
2023-05-12T05:18:46.248Z,101701.66
2023-05-12T05:21:16.376Z,101689.66
2023-05-12T05:23:43.004Z,101667.44
2023-05-12T05:26:09.630Z,101714.47
2023-05-12T05:28:37.257Z,101708.47
2023-05-12T05:31:03.745Z,101674.03
2023-05-12T05:33:30.380Z,101708.75
2023-05-12T05:35:57.216Z,101736.50
2023-05-12T05:38:23.721Z,101716.94
2023-05-12T05:40:53.673Z,101735.47
2023-05-12T05:43:20.906Z,101732.97
2023-05-12T05:45:49.662Z,101704.13
2023-05-12T05:48:16.305Z,101728.03
2023-05-12T05:50:42.886Z,101725.34
2023-05-12T05:53:12.474Z,101724.19
2023-05-12T05:55:38.927Z,101739.28
2023-05-12T05:58:05.734Z,101731.88
2023-05-12T06:00:32.118Z,101736.97
2023-05-12T06:02:58.699Z,101748.31
2023-05-12T06:05:25.412Z,101701.88
2023-05-12T06:07:51.826Z,101716.09
2023-05-12T06:10:18.631Z,101733.38
2023-05-12T06:12:45.908Z,101743.00
2023-05-12T06:15:12.449Z,101727.47
2023-05-12T06:17:39.535Z,101757.88
2023-05-12T06:20:06.673Z,101741.84
2023-05-12T06:22:34.672Z,101760.38
2023-05-12T06:25:01.428Z,101763.75
2023-05-12T06:27:27.827Z,101750.03
2023-05-12T06:29:54.279Z,101697.56
2023-05-12T06:32:20.845Z,101765.44
2023-05-12T06:34:47.288Z,101726.06
2023-05-12T06:37:13.696Z,101766.50
2023-05-12T06:39:40.373Z,101778.22
2023-05-12T06:42:06.824Z,101726.50
2023-05-12T06:44:33.358Z,101758.59
2023-05-12T06:46:59.914Z,101774.13
2023-05-12T06:49:26.370Z,101746.53
2023-05-12T06:51:52.902Z,101774.50
2023-05-12T06:54:19.497Z,101786.00
2023-05-12T06:56:46.326Z,101764.59
2023-05-12T06:59:13.307Z,101749.00
2023-05-12T07:01:40.754Z,101737.22
2023-05-12T07:04:07.996Z,101780.81
2023-05-12T07:06:41.942Z,101731.47
2023-05-12T07:09:08.489Z,101783.47
2023-05-12T07:11:35.022Z,101727.78
2023-05-12T07:14:01.495Z,101785.16
2023-05-12T07:16:27.903Z,101778.88
2023-05-12T07:18:54.543Z,101800.69
2023-05-12T07:21:21.822Z,101798.03
2023-05-12T07:23:48.858Z,101781.72
2023-05-12T07:26:17.090Z,101777.16
2023-05-12T07:28:43.531Z,101803.13
2023-05-12T07:31:10.559Z,101797.34
2023-05-12T07:33:37.207Z,101803.25
2023-05-12T07:36:04.809Z,101797.50
2023-05-12T07:38:32.088Z,101775.28
2023-05-12T07:40:59.335Z,101793.88
2023-05-12T07:43:26.126Z,101798.56
2023-05-12T07:45:52.828Z,101797.81
2023-05-12T07:48:19.225Z,101811.69
2023-05-12T07:50:45.720Z,101813.88
2023-05-12T07:53:12.227Z,101790.03
2023-05-12T07:55:38.808Z,101762.53
2023-05-12T07:58:05.245Z,101806.69
2023-05-12T08:00:31.872Z,101812.56
2023-05-12T08:02:58.550Z,101802.09
2023-05-12T08:05:25.244Z,101809.50
2023-05-12T08:07:52.243Z,101773.81
2023-05-12T08:10:21.372Z,101801.31
2023-05-12T08:12:48.110Z,101812.47
2023-05-12T08:15:14.705Z,101819.19
2023-05-12T08:17:41.916Z,101815.38
2023-05-12T08:20:09.111Z,101821.66
2023-05-12T08:22:35.640Z,101814.31
2023-05-12T08:25:02.235Z,101814.97
2023-05-12T08:27:29.578Z,101819.75
2023-05-12T08:29:56.046Z,101804.41
2023-05-12T08:32:22.642Z,101819.69
2023-05-12T08:34:49.152Z,101823.22
2023-05-12T08:37:15.603Z,101823.16
2023-05-12T08:39:42.108Z,101820.81
2023-05-12T08:42:23.671Z,101822.81
2023-05-12T08:44:50.351Z,101810.00
2023-05-12T08:47:18.824Z,101770.53
2023-05-12T08:49:51.743Z,101824.75
2023-05-12T08:52:22.120Z,101808.13
2023-05-12T08:54:56.132Z,101820.88
2023-05-12T08:57:24.167Z,101819.03
2023-05-12T08:59:54.012Z,101824.94
2023-05-12T09:02:23.219Z,101806.47
2023-05-12T09:04:51.268Z,101824.78
2023-05-12T09:07:24.337Z,101825.25
2023-05-12T09:09:56.832Z,101818.34
2023-05-12T09:12:25.605Z,101827.38
2023-05-12T09:15:03.962Z,101818.09
2023-05-12T09:17:30.614Z,101812.84
2023-05-12T09:19:57.149Z,101803.28
2023-05-12T09:22:36.194Z,101810.94
2023-05-12T09:25:21.616Z,101804.34
2023-05-12T09:27:52.535Z,101817.59
2023-05-12T09:30:29.624Z,101814.44
2023-05-12T09:33:07.493Z,101816.66
2023-05-12T09:35:39.251Z,101810.41
2023-05-12T09:38:09.748Z,101813.97
2023-05-12T09:40:36.386Z,101798.03
2023-05-12T09:43:05.471Z,101814.50
2023-05-12T09:45:36.462Z,101807.59
2023-05-12T09:48:11.428Z,101809.22
2023-05-12T09:50:50.385Z,101794.06
2023-05-12T09:53:18.338Z,101817.81
2023-05-12T09:55:46.593Z,101796.25
2023-05-12T09:58:17.954Z,101804.22
2023-05-12T10:01:02.389Z,101817.69
2023-05-12T10:03:34.282Z,101804.69
2023-05-12T10:06:04.178Z,101818.75
2023-05-12T10:08:40.678Z,101810.25
2023-05-12T10:11:08.116Z,101763.94
2023-05-12T10:13:35.347Z,101759.88
2023-05-12T10:16:03.148Z,101803.53
2023-05-12T10:18:31.477Z,101804.81
2023-05-12T10:20:58.080Z,101804.44
2023-05-12T10:23:26.745Z,101802.94
2023-05-12T10:25:58.572Z,101798.41
2023-05-12T10:28:25.304Z,101793.47
2023-05-12T10:30:52.850Z,101774.25
2023-05-12T10:33:19.565Z,101796.63
2023-05-12T10:35:48.559Z,101796.84
2023-05-12T10:38:21.844Z,101770.50
2023-05-12T10:40:52.511Z,101789.91
2023-05-12T10:43:23.830Z,101789.75
2023-05-12T10:46:12.369Z,101760.16
2023-05-12T10:49:07.481Z,101779.09
2023-05-12T10:51:46.142Z,101785.94
2023-05-12T10:54:19.721Z,101800.25
2023-05-12T10:56:47.369Z,101797.22
2023-05-12T10:59:14.893Z,101788.78
2023-05-12T11:01:43.105Z,101799.63
2023-05-12T11:04:15.615Z,101746.19
2023-05-12T11:06:45.025Z,101794.41
2023-05-12T11:09:13.336Z,101803.50
2023-05-12T11:11:40.566Z,101775.72
2023-05-12T11:14:08.353Z,101791.38
2023-05-12T11:16:41.199Z,101783.31
2023-05-12T11:19:07.791Z,101807.47
2023-05-12T11:21:34.501Z,101814.78
2023-05-12T11:24:02.121Z,101803.88
2023-05-12T11:26:29.697Z,101785.38
2023-05-12T11:28:59.703Z,101806.94
2023-05-12T11:31:26.573Z,101805.44
2023-05-12T11:34:12.793Z,101802.34
2023-05-12T11:36:44.296Z,101802.75
2023-05-12T11:39:32.585Z,101798.34
2023-05-12T11:42:12.214Z,101801.03
2023-05-12T11:44:47.756Z,101802.16
2023-05-12T11:47:15.672Z,101796.19
2023-05-12T11:49:53.023Z,101798.34
2023-05-12T11:52:21.334Z,101804.81
2023-05-12T11:54:51.595Z,101810.31
2023-05-12T11:57:32.490Z,101805.88
2023-05-12T12:00:01.322Z,101777.69
2023-05-12T12:02:28.378Z,101810.69
2023-05-12T12:04:55.193Z,101807.22
2023-05-12T12:07:39.807Z,101804.94
2023-05-12T12:10:17.217Z,101808.31
2023-05-12T12:12:44.633Z,101808.31
2023-05-12T12:15:12.032Z,101805.28
2023-05-12T12:17:39.834Z,101803.88
2023-05-12T12:20:08.142Z,101800.53
2023-05-12T12:22:35.309Z,101810.81
2023-05-12T12:25:03.253Z,101807.78
2023-05-12T12:27:29.947Z,101781.25
2023-05-12T12:29:56.479Z,101792.75
2023-05-12T12:32:23.025Z,101799.00
2023-05-12T12:34:50.172Z,101773.19
2023-05-12T12:37:17.132Z,101793.00
2023-05-12T12:39:43.714Z,101800.88
2023-05-12T12:42:10.171Z,101804.84
2023-05-12T12:44:36.606Z,101789.28
2023-05-12T12:47:03.406Z,101796.28
2023-05-12T12:49:29.810Z,101790.38
2023-05-12T12:51:56.321Z,101802.31
2023-05-12T12:54:23.006Z,101773.31
2023-05-12T12:56:49.425Z,101787.84
2023-05-12T12:59:15.907Z,101776.91
2023-05-12T13:01:43.067Z,101800.63
2023-05-12T13:04:09.596Z,101773.53
2023-05-12T13:06:36.663Z,101785.84
2023-05-12T13:09:03.888Z,101736.72
2023-05-12T13:11:30.517Z,101781.66
2023-05-12T13:13:56.904Z,101782.03
2023-05-12T13:16:23.414Z,101782.53
2023-05-12T13:18:49.895Z,101790.28
2023-05-12T13:21:17.904Z,101788.47
2023-05-12T13:23:44.300Z,101748.25
2023-05-12T13:26:10.713Z,101794.63
2023-05-12T13:28:37.151Z,101782.69
2023-05-12T13:31:03.715Z,101782.34
2023-05-12T13:33:30.187Z,101779.84
2023-05-12T13:35:57.038Z,101786.25
2023-05-12T13:38:23.464Z,101786.91
2023-05-12T13:40:50.208Z,101791.31
2023-05-12T13:43:16.739Z,101789.78
2023-05-12T13:45:43.182Z,101778.06
2023-05-12T13:48:09.672Z,101785.00
2023-05-12T13:50:36.207Z,101779.22
2023-05-12T13:53:02.605Z,101742.38
2023-05-12T13:55:29.061Z,101735.97
2023-05-12T13:57:55.498Z,101783.22
2023-05-12T14:00:22.146Z,101756.97
2023-05-12T14:02:48.840Z,101784.69
2023-05-12T14:05:15.599Z,101741.91
2023-05-12T14:07:42.620Z,101776.50
2023-05-12T14:10:10.002Z,101747.16
2023-05-12T14:12:36.983Z,101758.88
2023-05-12T14:15:29.128Z,101773.19
2023-05-12T14:17:50.542Z,101776.06
2023-05-12T14:20:17.069Z,101775.47
2023-05-12T14:22:43.522Z,101771.88
2023-05-12T14:25:10.052Z,101759.59
2023-05-12T14:27:36.553Z,101760.28
2023-05-12T14:30:03.614Z,101781.56
2023-05-12T14:32:30.232Z,101764.72
2023-05-12T14:34:57.138Z,101772.84
2023-05-12T14:37:23.567Z,101765.53
2023-05-12T14:39:49.956Z,101775.72
2023-05-12T14:42:17.844Z,101772.81
2023-05-12T14:44:44.261Z,101759.28
2023-05-12T14:47:10.685Z,101765.56
2023-05-12T14:49:37.206Z,101766.41
2023-05-12T14:52:03.725Z,101771.41
2023-05-12T14:54:30.392Z,101775.75
2023-05-12T14:56:56.846Z,101776.91
2023-05-12T14:59:23.253Z,101778.94
2023-05-12T15:01:50.070Z,101766.28
2023-05-12T15:04:16.731Z,101775.50
2023-05-12T15:06:43.149Z,101781.91
2023-05-12T15:09:09.657Z,101780.38
2023-05-12T15:11:37.028Z,101792.41
2023-05-12T15:14:04.611Z,101785.84
2023-05-12T15:16:33.055Z,101745.97
2023-05-12T15:18:59.703Z,101784.59
2023-05-12T15:21:26.346Z,101775.41
2023-05-12T15:23:52.790Z,101758.34
2023-05-12T15:26:31.911Z,101729.25
2023-05-12T15:28:59.775Z,101785.75
2023-05-12T15:31:28.916Z,101779.66
2023-05-12T15:33:56.852Z,101775.22
2023-05-12T15:36:23.286Z,101782.00
2023-05-12T15:38:49.736Z,101787.38
2023-05-12T15:41:16.202Z,101776.41
2023-05-12T15:43:42.636Z,101775.56
2023-05-12T15:46:11.053Z,101775.19
2023-05-12T15:48:37.690Z,101782.75
2023-05-12T15:51:04.351Z,101781.19
2023-05-12T15:53:31.454Z,101768.38
2023-05-12T15:56:02.551Z,101784.75
2023-05-12T15:58:29.373Z,101765.81
2023-05-12T16:00:55.905Z,101776.13
2023-05-12T16:03:26.427Z,101756.13
2023-05-12T16:05:53.373Z,101749.84
2023-05-12T16:08:29.171Z,101782.06
2023-05-12T16:10:55.779Z,101785.94
2023-05-12T16:13:22.604Z,101763.03
2023-05-12T16:15:52.006Z,101785.31
2023-05-12T16:18:18.917Z,101785.38
2023-05-12T16:20:49.857Z,101775.63
2023-05-12T16:23:16.680Z,101782.09
2023-05-12T16:25:45.629Z,101776.13
2023-05-12T16:28:12.466Z,101772.84
2023-05-12T16:30:39.247Z,101773.88
2023-05-12T16:33:07.291Z,101739.00
2023-05-12T16:35:34.171Z,101760.28
2023-05-12T16:38:01.148Z,101770.31
2023-05-12T16:40:27.824Z,101769.22
2023-05-12T16:42:55.099Z,101772.56
2023-05-12T16:45:23.224Z,101730.63
2023-05-12T16:50:17.523Z,101781.97
2023-05-12T16:52:44.249Z,101765.81
2023-05-12T16:55:11.128Z,101781.28
2023-05-12T16:57:37.646Z,101782.50
2023-05-12T17:00:06.672Z,101773.41
2023-05-12T17:02:33.413Z,101777.13
2023-05-12T17:05:02.797Z,101780.56
2023-05-12T17:07:29.167Z,101758.75
2023-05-12T17:09:55.543Z,101767.09
2023-05-12T17:12:22.281Z,101740.78
2023-05-12T17:14:59.321Z,101777.94
2023-05-12T17:17:33.356Z,101775.66
2023-05-12T17:20:00.725Z,101762.88
2023-05-12T17:22:27.950Z,101787.88
2023-05-12T17:24:54.333Z,101798.41
2023-05-12T17:27:20.758Z,101744.59
2023-05-12T17:29:47.475Z,101792.78
2023-05-12T17:32:13.868Z,101788.22
2023-05-12T17:34:40.292Z,101796.66
2023-05-12T17:37:06.828Z,101781.78
2023-05-12T17:39:34.168Z,101803.19
2023-05-12T17:42:00.659Z,101808.00
2023-05-12T17:44:27.059Z,101774.28
2023-05-12T17:46:53.607Z,101803.59
2023-05-12T17:49:20.050Z,101806.41
2023-05-12T17:51:49.404Z,101807.06
2023-05-12T17:54:16.213Z,101814.09
2023-05-12T17:56:44.661Z,101814.13
2023-05-12T17:59:12.311Z,101815.69
2023-05-12T18:01:38.933Z,101812.78
2023-05-12T18:04:05.500Z,101817.22
2023-05-12T18:06:32.698Z,101811.78
2023-05-12T18:08:59.127Z,101820.00
2023-05-12T18:11:26.103Z,101798.59
2023-05-12T18:13:53.679Z,101793.56
2023-05-12T18:16:28.678Z,101810.38
2023-05-12T18:18:56.295Z,101824.22
2023-05-12T18:21:22.809Z,101798.16
2023-05-12T18:23:49.242Z,101829.78
2023-05-12T18:26:15.729Z,101830.41
2023-05-12T18:28:42.316Z,101834.50
2023-05-12T18:31:16.077Z,101828.09
2023-05-12T18:33:45.741Z,101835.50
2023-05-12T18:36:12.866Z,101840.59
2023-05-12T18:38:39.422Z,101837.59
2023-05-12T18:41:06.142Z,101831.09
2023-05-12T18:43:32.724Z,101820.94
2023-05-12T18:45:59.230Z,101788.28
2023-05-12T18:48:25.713Z,101788.00
2023-05-12T18:50:52.468Z,101814.59
2023-05-12T18:53:18.917Z,101845.16
2023-05-12T18:55:45.564Z,101840.69
2023-05-12T18:58:12.116Z,101851.88
2023-05-12T19:00:39.541Z,101851.69
2023-05-12T19:03:06.071Z,101829.88
2023-05-12T19:05:32.594Z,101854.88
2023-05-12T19:07:58.988Z,101862.22
2023-05-12T19:10:26.715Z,101847.59
2023-05-12T19:12:53.202Z,101832.81
2023-05-12T19:15:21.966Z,101869.84
2023-05-12T19:17:49.335Z,101834.75
2023-05-12T19:20:16.463Z,101859.97
2023-05-12T19:22:44.190Z,101849.72
2023-05-12T19:25:10.930Z,101865.94
2023-05-12T19:27:37.541Z,101830.19
2023-05-12T19:30:05.451Z,101880.31
2023-05-12T19:32:32.853Z,101876.13
2023-05-12T19:35:01.013Z,101877.31
2023-05-12T19:37:27.545Z,101873.22
2023-05-12T19:39:54.060Z,101881.31
2023-05-12T19:42:22.655Z,101881.81
2023-05-12T19:44:52.185Z,101877.06
2023-05-12T19:47:19.012Z,101883.28
2023-05-12T19:49:45.622Z,101878.72
2023-05-12T19:52:12.275Z,101875.47
2023-05-12T19:54:38.891Z,101866.81
2023-05-12T19:57:05.633Z,101883.69
2023-05-12T19:59:32.292Z,101852.50
2023-05-12T20:01:58.929Z,101861.78
2023-05-12T20:04:26.032Z,101850.56
2023-05-12T20:06:54.516Z,101901.94
2023-05-12T20:09:23.185Z,101893.66
2023-05-12T20:11:49.604Z,101897.97
2023-05-12T20:14:16.535Z,101898.25
2023-05-12T20:16:43.351Z,101910.38
2023-05-12T20:19:10.008Z,101912.19
2023-05-12T20:21:36.766Z,101911.25
2023-05-12T20:24:03.937Z,101917.59
2023-05-12T20:26:30.649Z,101910.09
2023-05-12T20:28:59.636Z,101889.22
2023-05-12T20:31:27.373Z,101915.69
2023-05-12T20:33:58.007Z,101917.44
2023-05-12T20:36:24.716Z,101864.19
2023-05-12T20:38:51.578Z,101893.44
2023-05-12T20:41:18.759Z,101937.31
2023-05-12T20:43:45.940Z,101933.69
2023-05-12T20:46:12.731Z,101902.63
2023-05-12T20:48:39.501Z,101934.22
2023-05-12T20:51:15.569Z,101927.16
2023-05-12T20:53:42.327Z,101927.50
2023-05-12T20:56:08.969Z,101938.00
2023-05-12T20:58:35.867Z,101926.97
2023-05-12T21:01:02.441Z,101938.50
2023-05-12T21:03:29.327Z,101888.22
2023-05-12T21:05:56.118Z,101934.03
2023-05-12T21:08:22.960Z,101930.50
2023-05-12T21:10:49.581Z,101899.06
2023-05-12T21:13:16.774Z,101937.34
2023-05-12T21:15:43.234Z,101941.44
2023-05-12T21:18:10.132Z,101941.00
2023-05-12T21:20:36.833Z,101945.16
2023-05-12T21:23:03.297Z,101919.56
2023-05-12T21:25:30.019Z,101873.53
2023-05-12T21:27:56.714Z,101941.78
2023-05-12T21:30:23.382Z,101942.09
2023-05-12T21:32:50.678Z,101917.50
2023-05-12T21:35:17.298Z,101944.63
2023-05-12T21:37:43.932Z,101931.66
2023-05-12T21:40:10.862Z,101943.13
2023-05-12T21:42:37.490Z,101941.84
2023-05-12T21:45:04.561Z,101951.19
2023-05-12T21:47:31.173Z,101947.22
2023-05-12T21:49:58.075Z,101941.72
2023-05-12T21:52:24.990Z,101943.56
2023-05-12T21:54:51.599Z,101951.22
2023-05-12T21:57:18.503Z,101949.06
2023-05-12T21:59:44.994Z,101925.59
2023-05-12T22:02:11.510Z,101952.75
2023-05-12T22:04:38.175Z,101953.16
2023-05-12T22:07:04.972Z,101932.34
2023-05-12T22:09:31.662Z,101899.81
2023-05-12T22:11:58.267Z,101936.16
2023-05-12T22:14:24.876Z,101952.13
2023-05-12T22:16:51.395Z,101912.06
2023-05-12T22:19:18.321Z,101955.06
2023-05-12T22:21:45.750Z,101953.81
2023-05-12T22:24:12.268Z,101949.38
2023-05-12T22:26:38.755Z,101936.09
2023-05-12T22:29:05.196Z,101959.13
2023-05-12T22:31:31.814Z,101960.50
2023-05-12T22:33:58.267Z,101923.81
2023-05-12T22:36:24.831Z,101965.53
2023-05-12T22:38:51.249Z,101947.38
2023-05-12T22:41:17.654Z,101914.41
2023-05-12T22:43:44.094Z,101967.97
2023-05-12T22:46:10.562Z,101957.22
2023-05-12T22:48:39.503Z,101957.91
2023-05-12T22:51:06.658Z,101924.31
2023-05-12T22:53:35.640Z,101960.22
2023-05-12T22:56:03.315Z,101974.31
2023-05-12T22:58:29.961Z,101971.31
2023-05-12T23:00:56.522Z,101972.69
2023-05-12T23:03:22.969Z,101950.25
2023-05-12T23:05:49.645Z,101953.31
2023-05-12T23:08:16.503Z,101975.66
2023-05-12T23:10:42.900Z,101977.88
2023-05-12T23:13:09.510Z,101949.38
2023-05-12T23:15:36.040Z,101936.16
2023-05-12T23:18:02.591Z,101928.03
2023-05-12T23:20:29.034Z,101943.84
2023-05-12T23:22:56.597Z,101946.06
2023-05-12T23:25:23.137Z,101935.00
2023-05-12T23:27:49.628Z,101933.97
2023-05-12T23:30:16.268Z,101910.28
2023-05-12T23:32:42.941Z,101964.69
2023-05-12T23:35:10.112Z,101972.59
2023-05-12T23:37:36.644Z,101973.84
2023-05-12T23:40:03.991Z,101920.91
2023-05-12T23:42:30.591Z,101970.34
2023-05-12T23:44:57.068Z,101976.22
2023-05-12T23:47:23.553Z,101961.00
2023-05-12T23:49:49.968Z,101981.44
2023-05-12T23:52:19.223Z,101967.72
2023-05-12T23:54:45.641Z,101971.72
2023-05-12T23:57:12.061Z,101959.09
2023-05-12T23:59:38.588Z,101958.84
